If you wish to contribute or participate in the discussions about articles you are invited to join SKYbrary as a registered user

 Actions

King County International Airport

From SKYbrary Wiki

KBFI
Airport
ICAO: KBFI
Summary
Name King County International Airport
Region North America
Territory United States US.gif
Location Seattle, Washington
Serving
Coordinates 47° 32' 12.03" N, 122° 18' 14.36" W
Runways
Designator Length Width Surface ROPS
13L/31R 1131 m3,710.63 ft
30 m98.425 ft
ASP yes/yes
13R/31L 3048 m10,000 ft
61 m200.131 ft
ASP yes/yes


METAR
Observation KBFI 181853Z 00000KT 10SM FEW015 SCT050 17/12 A2988 RMK AO2 SLP119 T01720117
Station Seattle, Seattle Boeing Field
Date/Time 18 September 2019 18:53:00
Wind direction
Wind speed 00 kts
Lowest cloud amount few clouds
Temperature 17.2°C
Dew point 11.7°C
Humidity 70%
QNH hPa
Weather condition n/a

LOS
Tag(s) Parallel Runway Operation

King County International Airport

ICAO: KBFI IATA: BFI

Boeing Field

Description

Boeing Field, officially King County International Airport, is a public airport located 8 km4.32 nm
8,000 m
26,246.719 ft
south of the central business district of Seattle, Washington.

Climatology

Dry-summer subtropical ”Mediterranean" climate (Köppen climate classification Csb) - characterized by warm, dry summers and mild winters.

Maps

Terrain

Loading map...

Airport Layout

Loading map...


Accidents & Serious Incidents at or in vicinity of KBFI

None on SKYbrary